Time;durP1;ratioP1;P1;durP2;ratioP2;P2;SDS_P1;SDS_P2;PMS_P1;PMS_P2;Temp;Humidity;BMP_temperature;BMP_pressure;BME280_temperature;BME280_humidity;BME280_pressure;Samples;Min_cycle;Max_cycle;Signal;HPM_P1;HPM_P2
2023/03/12 00:02:08;;;;;;;4.15;3.22;;;-0.60;99.90;;;;;;5044554;28;20044;-66
2023/03/12 00:04:35;;;;;;;6.93;4.07;;;-0.70;99.90;;;;;;5046398;28;20125;-67
2023/03/12 00:07:01;;;;;;;5.10;3.25;;;-0.70;99.90;;;;;;5037778;28;20038;-66
2023/03/12 00:09:27;;;;;;;6.47;3.72;;;-0.70;99.90;;;;;;5042499;28;20045;-68
2023/03/12 00:11:53;;;;;;;7.07;3.92;;;-0.80;99.90;;;;;;5046939;28;20040;-67
2023/03/12 00:14:19;;;;;;;6.50;3.78;;;-0.80;99.90;;;;;;5026460;28;20040;-69
2023/03/12 00:16:45;;;;;;;7.10;3.92;;;-0.90;99.90;;;;;;5012332;28;20381;-67
2023/03/12 00:19:12;;;;;;;7.85;3.80;;;-1.00;99.90;;;;;;5037992;28;20037;-68
2023/03/12 00:21:38;;;;;;;9.15;4.20;;;-1.00;99.90;;;;;;5044502;28;20037;-66
2023/03/12 00:24:04;;;;;;;7.47;3.70;;;-1.00;99.90;;;;;;5041956;28;20068;-66
2023/03/12 00:26:30;;;;;;;10.70;4.00;;;-1.00;99.90;;;;;;5033260;28;20045;-67
2023/03/12 00:28:56;;;;;;;7.75;4.00;;;-1.00;99.90;;;;;;5034087;28;20483;-66
2023/03/12 00:31:28;;;;;;;7.38;4.20;;;-1.00;99.90;;;;;;5036856;28;20404;-67
2023/03/12 00:33:55;;;;;;;7.28;4.35;;;-1.00;99.90;;;;;;5036213;28;20037;-68
2023/03/12 00:36:25;;;;;;;7.32;4.10;;;-1.00;99.90;;;;;;5032318;28;20037;-67
2023/03/12 00:38:51;;;;;;;8.48;4.05;;;-0.90;99.90;;;;;;5033986;28;20033;-66
2023/03/12 00:41:20;;;;;;;9.65;3.90;;;-0.80;99.90;;;;;;5016112;28;20076;-66
2023/03/12 00:43:47;;;;;;;7.22;3.80;;;-0.70;99.90;;;;;;5037977;28;20045;-67
2023/03/12 00:46:12;;;;;;;7.85;3.67;;;-0.60;99.90;;;;;;5046429;28;20044;-68
2023/03/12 00:48:38;;;;;;;6.93;4.18;;;-0.50;99.90;;;;;;5051840;28;20052;-66
2023/03/12 00:51:04;;;;;;;7.22;4.30;;;-0.60;99.90;;;;;;5050450;28;20024;-66
2023/03/12 00:53:30;;;;;;;8.20;4.38;;;-0.60;99.90;;;;;;5044935;28;20151;-66
2023/03/12 00:55:55;;;;;;;9.02;3.97;;;-0.60;99.90;;;;;;5047042;28;20071;-66
2023/03/12 00:58:21;;;;;;;10.52;4.78;;;-0.50;99.90;;;;;;5044103;28;20041;-66
2023/03/12 01:00:47;;;;;;;9.00;3.97;;;-0.50;99.90;;;;;;5044128;28;20049;-67
2023/03/12 01:03:12;;;;;;;8.10;4.28;;;-0.50;99.90;;;;;;5047798;28;20461;-65
2023/03/12 01:05:39;;;;;;;9.68;4.40;;;-0.40;99.90;;;;;;5048290;28;20396;-65
2023/03/12 01:08:07;;;;;;;11.27;4.53;;;-0.50;99.90;;;;;;5035349;28;20045;-66
2023/03/12 01:10:33;;;;;;;9.48;4.80;;;-0.40;99.90;;;;;;5030764;28;20041;-67
2023/03/12 01:12:59;;;;;;;11.82;5.07;;;-0.50;99.90;;;;;;5028619;28;20069;-66
2023/03/12 01:15:25;;;;;;;6.70;4.32;;;-0.50;99.90;;;;;;5019359;28;20076;-65
2023/03/12 01:17:51;;;;;;;8.75;4.50;;;-0.60;99.90;;;;;;5040313;28;20088;-68
2023/03/12 01:20:16;;;;;;;10.80;4.43;;;-0.60;99.90;;;;;;5043015;28;20481;-67
2023/03/12 01:22:43;;;;;;;8.73;4.85;;;-0.60;99.90;;;;;;5044558;28;20477;-65
2023/03/12 01:25:09;;;;;;;9.68;4.70;;;-0.70;99.90;;;;;;5043757;28;20571;-67
2023/03/12 01:27:35;;;;;;;9.38;4.60;;;-0.60;99.90;;;;;;5043118;28;20102;-67
2023/03/12 01:30:02;;;;;;;7.65;4.10;;;-0.60;99.90;;;;;;5043365;28;20033;-68
2023/03/12 01:32:27;;;;;;;8.25;4.57;;;-0.50;99.90;;;;;;5037774;28;20037;-65
2023/03/12 01:34:53;;;;;;;8.35;4.72;;;-0.50;99.90;;;;;;5039510;28;20039;-66
2023/03/12 01:37:19;;;;;;;8.75;4.40;;;-0.40;99.90;;;;;;5034178;28;20037;-66
2023/03/12 01:39:44;;;;;;;8.63;4.57;;;-0.30;99.90;;;;;;5029857;28;20607;-66
2023/03/12 01:42:10;;;;;;;15.80;4.40;;;-0.30;99.90;;;;;;5015867;28;20040;-66
2023/03/12 01:44:56;;;;;;;6.63;4.18;;;-0.20;99.90;;;;;;5041564;28;20128;-66
2023/03/12 01:47:23;;;;;;;6.45;4.60;;;-0.30;99.90;;;;;;5048323;28;20037;-66
2023/03/12 01:49:50;;;;;;;9.32;4.60;;;-0.30;99.90;;;;;;5049818;28;20037;-66
2023/03/12 01:52:21;;;;;;;10.00;4.10;;;-0.30;99.90;;;;;;5049350;28;20044;-67
2023/03/12 01:55:15;;;;;;;6.53;4.18;;;-0.40;99.90;;;;;;5047776;28;20567;-67
2023/03/12 01:57:49;;;;;;;6.97;3.83;;;-0.40;99.90;;;;;;5031541;28;20037;-66
2023/03/12 02:00:22;;;;;;;8.38;4.45;;;-0.40;99.90;;;;;;5038302;28;20109;-66
2023/03/12 02:02:50;;;;;;;9.65;4.70;;;-0.40;99.90;;;;;;5030604;28;20046;-65
2023/03/12 02:05:26;;;;;;;10.68;4.53;;;-0.30;99.90;;;;;;5038327;28;20405;-66
2023/03/12 02:07:52;;;;;;;7.68;4.30;;;-0.30;99.90;;;;;;5029671;28;20041;-65
2023/03/12 02:10:18;;;;;;;7.38;4.18;;;-0.40;99.90;;;;;;5034371;28;20078;-65
2023/03/12 02:12:43;;;;;;;10.80;4.13;;;-0.30;99.90;;;;;;5048181;28;20044;-66
2023/03/12 02:15:10;;;;;;;12.63;4.80;;;-0.30;99.90;;;;;;5041680;28;20503;-66
2023/03/12 02:17:38;;;;;;;6.95;4.40;;;-0.20;99.90;;;;;;5037010;28;20052;-66
2023/03/12 02:20:35;;;;;;;7.15;4.10;;;-0.20;99.90;;;;;;5040163;28;20041;-66
2023/03/12 02:23:36;;;;;;;9.15;4.60;;;-0.10;99.90;;;;;;5033839;28;20080;-68
2023/03/12 02:26:04;;;;;;;8.15;4.50;;;-0.10;99.90;;;;;;5034769;28;20381;-67
2023/03/12 02:28:34;;;;;;;10.02;4.75;;;-0.10;99.90;;;;;;5032996;28;20052;-66
2023/03/12 02:31:02;;;;;;;9.70;4.70;;;-0.10;99.90;;;;;;5035061;28;20134;-66
2023/03/12 02:33:28;;;;;;;9.75;4.40;;;0.00;99.90;;;;;;5009294;28;20053;-66
2023/03/12 02:35:54;;;;;;;7.00;4.15;;;0.10;99.90;;;;;;5035534;28;20384;-67
2023/03/12 02:38:42;;;;;;;5.55;3.78;;;0.00;99.90;;;;;;5035240;28;21989;-66
2023/03/12 02:41:26;;;;;;;9.50;3.60;;;0.00;99.90;;;;;;5012856;28;20045;-66
2023/03/12 02:43:57;;;;;;;13.88;4.25;;;0.10;99.90;;;;;;5027732;28;20052;-66
2023/03/12 02:46:23;;;;;;;7.30;4.10;;;0.10;99.90;;;;;;5031336;28;20030;-66
2023/03/12 02:48:50;;;;;;;8.50;3.65;;;0.10;99.90;;;;;;5038204;28;20032;-66
2023/03/12 02:51:15;;;;;;;8.68;4.40;;;0.00;99.90;;;;;;5046551;28;20037;-67
2023/03/12 02:53:41;;;;;;;7.70;4.18;;;0.00;99.90;;;;;;5042968;28;20527;-66
2023/03/12 02:56:07;;;;;;;6.70;3.28;;;0.00;99.90;;;;;;5050242;28;20430;-66
2023/03/12 02:58:32;;;;;;;9.43;4.05;;;0.00;99.90;;;;;;5035811;28;20049;-65
2023/03/12 03:00:58;;;;;;;8.88;3.90;;;0.00;99.90;;;;;;5031512;28;20108;-66
2023/03/12 03:03:24;;;;;;;7.50;3.28;;;0.00;99.90;;;;;;5033860;28;20697;-66
2023/03/12 03:05:50;;;;;;;6.15;3.45;;;0.00;99.90;;;;;;5021440;28;20037;-65
2023/03/12 03:08:16;;;;;;;5.57;3.53;;;0.00;99.90;;;;;;5040317;28;20421;-67
2023/03/12 03:10:42;;;;;;;11.35;3.90;;;0.00;99.90;;;;;;5046675;28;20094;-67
2023/03/12 03:13:07;;;;;;;8.85;4.18;;;0.00;99.90;;;;;;5051396;28;20051;-67
2023/03/12 03:15:33;;;;;;;4.93;3.60;;;-0.10;99.90;;;;;;5017166;28;20041;-66
2023/03/12 03:18:02;;;;;;;6.47;3.60;;;-0.10;99.90;;;;;;5038362;28;20041;-66
2023/03/12 03:20:28;;;;;;;5.00;3.40;;;0.00;99.90;;;;;;5032560;28;20052;-65
2023/03/12 03:22:54;;;;;;;7.55;3.72;;;0.00;99.90;;;;;;5041843;28;20496;-66
2023/03/12 03:25:21;;;;;;;7.53;3.55;;;-0.10;99.90;;;;;;5035027;28;20033;-66
2023/03/12 03:27:47;;;;;;;6.78;3.42;;;-0.10;99.90;;;;;;5043884;28;20124;-66
2023/03/12 03:30:15;;;;;;;7.80;3.30;;;-0.10;99.90;;;;;;5035555;28;20040;-67
2023/03/12 03:32:41;;;;;;;6.47;3.90;;;-0.20;99.90;;;;;;5050079;28;20037;-66
2023/03/12 03:35:07;;;;;;;6.63;3.80;;;-0.20;99.90;;;;;;5039644;28;20094;-66
2023/03/12 03:37:32;;;;;;;9.55;3.72;;;-0.10;99.90;;;;;;5048743;28;20115;-66
2023/03/12 03:39:58;;;;;;;7.38;4.10;;;-0.10;99.90;;;;;;5043112;28;20462;-68
2023/03/12 03:42:23;;;;;;;5.03;3.47;;;-0.10;99.90;;;;;;5042915;28;20044;-67
2023/03/12 03:44:49;;;;;;;6.03;4.13;;;-0.10;99.90;;;;;;5015178;28;20171;-67
2023/03/12 03:47:15;;;;;;;7.68;3.80;;;-0.10;99.90;;;;;;5043039;28;20045;-66
2023/03/12 03:49:40;;;;;;;6.00;3.65;;;-0.10;99.90;;;;;;5031887;28;20052;-65
2023/03/12 03:52:06;;;;;;;7.13;3.42;;;-0.10;99.90;;;;;;5016258;28;20053;-66
2023/03/12 03:54:32;;;;;;;7.95;3.97;;;-0.10;99.90;;;;;;5044419;28;20041;-65
2023/03/12 03:56:59;;;;;;;5.65;3.25;;;-0.10;99.90;;;;;;5048288;28;20055;-66
2023/03/12 03:59:25;;;;;;;7.75;3.63;;;-0.10;99.90;;;;;;5043261;28;20053;-66
2023/03/12 04:01:51;;;;;;;6.55;4.07;;;-0.10;99.90;;;;;;5050564;28;20048;-65
2023/03/12 04:04:16;;;;;;;8.43;3.83;;;-0.10;99.90;;;;;;5049695;28;20067;-66
2023/03/12 04:06:42;;;;;;;7.10;3.38;;;-0.10;99.90;;;;;;5049377;28;20037;-67
2023/03/12 04:09:08;;;;;;;7.85;3.42;;;-0.10;99.90;;;;;;5024216;28;20496;-66
2023/03/12 04:11:34;;;;;;;7.65;4.00;;;-0.10;99.90;;;;;;5040326;28;20049;-67
2023/03/12 04:13:59;;;;;;;10.77;3.95;;;-0.10;99.90;;;;;;5036558;28;20469;-66
2023/03/12 04:16:25;;;;;;;7.28;4.10;;;-0.10;99.90;;;;;;5039855;28;20075;-66
2023/03/12 04:18:51;;;;;;;9.02;4.10;;;-0.10;99.90;;;;;;5052360;28;20071;-66
2023/03/12 04:21:16;;;;;;;7.70;4.03;;;-0.10;99.90;;;;;;5052215;28;20128;-66
2023/03/12 04:23:42;;;;;;;9.40;4.25;;;-0.10;99.90;;;;;;5051506;28;20041;-67
2023/03/12 04:26:07;;;;;;;5.60;3.58;;;-0.10;99.90;;;;;;5046877;28;20037;-66
2023/03/12 04:28:34;;;;;;;5.50;3.50;;;0.00;99.90;;;;;;5030082;28;20052;-67
2023/03/12 04:31:03;;;;;;;8.18;4.30;;;0.00;99.90;;;;;;5031670;28;20120;-67
2023/03/12 04:33:32;;;;;;;9.65;4.57;;;0.00;99.90;;;;;;5032356;28;20033;-66
2023/03/12 04:35:58;;;;;;;8.27;4.47;;;0.00;99.90;;;;;;5031769;28;20128;-66
2023/03/12 04:38:25;;;;;;;7.82;3.95;;;0.00;99.90;;;;;;5032558;28;20124;-65
2023/03/12 04:41:01;;;;;;;6.57;4.45;;;0.00;99.90;;;;;;5042992;28;20086;-66
2023/03/12 04:43:28;;;;;;;9.90;4.75;;;0.10;99.90;;;;;;5040193;28;20234;-67
2023/03/12 04:45:54;;;;;;;11.35;4.50;;;0.10;99.90;;;;;;5040032;28;20607;-66
2023/03/12 04:48:19;;;;;;;10.93;4.47;;;0.10;99.90;;;;;;5042901;28;20424;-66
2023/03/12 04:50:45;;;;;;;7.43;4.50;;;0.10;99.90;;;;;;5038302;28;20052;-66
2023/03/12 04:53:11;;;;;;;7.43;4.93;;;0.00;99.90;;;;;;5019647;28;20087;-67
2023/03/12 04:55:36;;;;;;;7.85;4.20;;;0.10;99.90;;;;;;5044511;28;20414;-66
2023/03/12 04:58:02;;;;;;;8.18;5.20;;;0.00;99.90;;;;;;5036444;28;20044;-67
2023/03/12 05:00:28;;;;;;;10.48;5.07;;;0.10;99.90;;;;;;5043726;28;20057;-66
2023/03/12 05:02:53;;;;;;;9.13;4.70;;;0.10;99.90;;;;;;5045379;28;20190;-65
2023/03/12 05:05:19;;;;;;;10.00;5.70;;;0.10;99.90;;;;;;5041204;28;20473;-68
2023/03/12 05:07:45;;;;;;;13.18;4.53;;;0.10;99.90;;;;;;5042430;28;20041;-68
2023/03/12 05:10:10;;;;;;;8.68;4.80;;;0.10;99.90;;;;;;5044628;28;20496;-67
2023/03/12 05:12:36;;;;;;;9.77;5.18;;;0.10;99.90;;;;;;5048947;28;20037;-66
2023/03/12 05:15:01;;;;;;;9.45;5.72;;;0.10;99.90;;;;;;5045216;28;20499;-66
2023/03/12 05:17:27;;;;;;;7.38;4.90;;;0.10;99.90;;;;;;5032419;28;20109;-66
2023/03/12 05:19:53;;;;;;;7.72;5.18;;;0.10;99.90;;;;;;5034662;28;20032;-66
2023/03/12 05:22:18;;;;;;;10.43;5.40;;;0.10;99.90;;;;;;5048495;28;20037;-67
2023/03/12 05:24:44;;;;;;;8.75;5.55;;;0.10;99.90;;;;;;5032674;28;20116;-65
2023/03/12 05:27:10;;;;;;;8.02;5.65;;;0.10;99.90;;;;;;5038816;28;20094;-66
2023/03/12 05:29:36;;;;;;;10.88;6.10;;;0.10;99.90;;;;;;5044749;28;20049;-66
2023/03/12 05:32:02;;;;;;;13.13;6.20;;;0.20;99.90;;;;;;5029875;28;20059;-67
2023/03/12 05:34:29;;;;;;;10.05;5.85;;;0.10;99.90;;;;;;5048432;28;20064;-66
2023/03/12 05:36:55;;;;;;;10.38;6.15;;;0.10;99.90;;;;;;5036925;28;20037;-66
2023/03/12 05:39:22;;;;;;;12.15;6.60;;;0.20;99.90;;;;;;5038767;28;20041;-66
2023/03/12 05:41:47;;;;;;;10.93;6.53;;;0.20;99.90;;;;;;5044415;28;20037;-65
2023/03/12 05:44:14;;;;;;;11.40;7.03;;;0.20;99.90;;;;;;5044068;28;20465;-65
2023/03/12 05:46:41;;;;;;;17.13;7.32;;;0.20;99.90;;;;;;5045252;28;20634;-66
2023/03/12 05:49:07;;;;;;;12.25;6.50;;;0.20;99.90;;;;;;5047008;28;20043;-66
2023/03/12 05:51:33;;;;;;;10.77;7.32;;;0.20;99.90;;;;;;5034642;28;20132;-66
2023/03/12 05:53:58;;;;;;;15.15;7.00;;;0.20;99.90;;;;;;5047349;28;20037;-65
2023/03/12 05:56:24;;;;;;;13.05;7.80;;;0.20;99.90;;;;;;5038453;28;20413;-66
2023/03/12 05:58:50;;;;;;;12.82;7.93;;;0.20;99.90;;;;;;5031325;28;20052;-68
2023/03/12 06:01:22;;;;;;;13.48;7.60;;;0.20;99.90;;;;;;5033031;28;20064;-66
2023/03/12 06:03:47;;;;;;;11.32;8.38;;;0.20;99.90;;;;;;5036646;28;20385;-65
2023/03/12 06:06:13;;;;;;;15.07;8.00;;;0.30;99.90;;;;;;5043587;28;20037;-66
2023/03/12 06:08:40;;;;;;;16.45;8.32;;;0.30;99.90;;;;;;5046388;28;20041;-66
2023/03/12 06:11:05;;;;;;;16.98;8.45;;;0.30;99.90;;;;;;5042876;28;20480;-65
2023/03/12 06:13:31;;;;;;;16.40;9.10;;;0.30;99.90;;;;;;5032572;28;20056;-65
2023/03/12 06:16:16;;;;;;;12.93;8.07;;;0.40;99.90;;;;;;5021438;28;20037;-66
2023/03/12 06:18:42;;;;;;;14.93;8.27;;;0.40;99.90;;;;;;5030993;28;20033;-66
2023/03/12 06:21:16;;;;;;;14.85;9.35;;;0.40;99.90;;;;;;5030844;28;20370;-66
2023/03/12 06:23:43;;;;;;;11.60;8.07;;;0.40;99.90;;;;;;5052536;28;20041;-66
2023/03/12 06:26:10;;;;;;;14.32;8.23;;;0.50;99.90;;;;;;5037487;28;20068;-67
2023/03/12 06:28:36;;;;;;;12.10;8.07;;;0.50;99.90;;;;;;5039052;28;20084;-66
2023/03/12 06:31:01;;;;;;;12.15;8.18;;;0.50;99.90;;;;;;5033892;28;20484;-67
2023/03/12 06:33:27;;;;;;;12.75;7.25;;;0.60;99.90;;;;;;5037302;28;20082;-67
2023/03/12 06:35:58;;;;;;;10.90;7.32;;;0.60;99.90;;;;;;5054556;28;20102;-66
2023/03/12 06:38:24;;;;;;;12.82;7.93;;;0.60;99.90;;;;;;5039205;28;20128;-66
2023/03/12 06:41:03;;;;;;;12.70;7.30;;;0.60;99.90;;;;;;5043521;28;20116;-67
2023/03/12 06:43:30;;;;;;;13.75;8.15;;;0.70;99.90;;;;;;5040814;28;20068;-66
2023/03/12 06:45:57;;;;;;;12.73;7.00;;;0.70;99.90;;;;;;5045133;28;20075;-67
2023/03/12 06:48:24;;;;;;;10.52;7.40;;;0.70;99.90;;;;;;5044528;28;20536;-67
2023/03/12 06:50:50;;;;;;;10.23;6.82;;;0.80;99.90;;;;;;5044081;28;20506;-66
2023/03/12 06:53:16;;;;;;;14.40;7.28;;;0.80;99.90;;;;;;5031943;28;20045;-68
2023/03/12 06:55:43;;;;;;;13.50;7.68;;;0.80;99.90;;;;;;5049879;28;20056;-68
2023/03/12 06:58:08;;;;;;;11.60;6.85;;;0.80;99.90;;;;;;5032858;28;20044;-68
2023/03/12 07:00:34;;;;;;;12.98;6.70;;;0.90;99.90;;;;;;5043715;28;20389;-65
2023/03/12 07:03:00;;;;;;;13.95;6.70;;;0.90;99.90;;;;;;5040988;28;20041;-66
2023/03/12 07:05:26;;;;;;;11.80;7.13;;;0.90;99.90;;;;;;5046994;28;20040;-67
2023/03/12 07:07:52;;;;;;;10.40;6.47;;;1.00;99.90;;;;;;5050952;28;20438;-68
2023/03/12 07:10:17;;;;;;;12.07;6.65;;;1.00;99.90;;;;;;5046248;28;20071;-68
2023/03/12 07:12:43;;;;;;;16.45;7.28;;;1.10;99.90;;;;;;5047545;28;20045;-68
2023/03/12 07:15:09;;;;;;;11.07;6.30;;;1.20;99.90;;;;;;5035700;28;20078;-67
2023/03/12 07:17:35;;;;;;;9.63;6.97;;;1.30;99.90;;;;;;5046781;28;20044;-68
2023/03/12 07:20:01;;;;;;;11.07;6.72;;;1.40;99.90;;;;;;5048337;28;20086;-67
2023/03/12 07:22:26;;;;;;;9.25;6.35;;;1.40;99.90;;;;;;5049808;28;20413;-68
2023/03/12 07:24:52;;;;;;;10.52;6.80;;;1.40;99.90;;;;;;5050721;28;20519;-65
2023/03/12 07:27:17;;;;;;;9.77;6.78;;;1.40;99.90;;;;;;5042556;28;20037;-67
2023/03/12 07:29:44;;;;;;;12.70;7.50;;;1.40;99.90;;;;;;5039062;28;20041;-66
2023/03/12 07:32:10;;;;;;;12.00;7.03;;;1.30;99.90;;;;;;5019239;28;20029;-67
2023/03/12 07:34:35;;;;;;;13.15;7.50;;;1.30;99.90;;;;;;5035019;28;20102;-70
2023/03/12 07:37:01;;;;;;;10.80;7.07;;;1.10;99.90;;;;;;5046333;28;20911;-68
2023/03/12 07:39:27;;;;;;;11.52;7.90;;;1.00;99.90;;;;;;5051120;28;20117;-69
2023/03/12 07:41:53;;;;;;;13.10;8.23;;;1.00;99.90;;;;;;5051084;28;20152;-69
2023/03/12 07:44:19;;;;;;;13.10;8.70;;;0.90;99.90;;;;;;5048788;28;20041;-69
2023/03/12 07:46:44;;;;;;;15.15;8.20;;;0.90;99.90;;;;;;5047863;28;20048;-69
2023/03/12 07:49:10;;;;;;;13.45;8.20;;;0.90;99.90;;;;;;5047758;28;20056;-70
2023/03/12 07:51:35;;;;;;;16.45;9.23;;;0.80;99.90;;;;;;5032795;28;20076;-68
2023/03/12 07:54:01;;;;;;;19.40;9.52;;;0.80;99.90;;;;;;5046310;28;20037;-71
2023/03/12 07:56:26;;;;;;;13.93;9.43;;;0.80;99.90;;;;;;5015661;28;20493;-71
2023/03/12 07:58:52;;;;;;;18.15;9.93;;;0.80;99.90;;;;;;5042547;28;20065;-68
2023/03/12 08:01:18;;;;;;;16.52;9.90;;;0.70;99.90;;;;;;5043556;28;20045;-68
2023/03/12 08:03:43;;;;;;;20.17;10.95;;;0.70;99.90;;;;;;5044112;28;20033;-69
2023/03/12 08:06:09;;;;;;;16.67;9.75;;;0.70;99.90;;;;;;5045172;28;20116;-69
2023/03/12 08:08:37;;;;;;;18.75;9.50;;;0.80;99.90;;;;;;5047509;28;20500;-69
2023/03/12 08:11:03;;;;;;;15.65;9.65;;;0.80;99.90;;;;;;5050535;28;20090;-68
2023/03/12 08:13:29;;;;;;;19.75;9.93;;;0.80;99.90;;;;;;5032602;28;20046;-68
2023/03/12 08:15:56;;;;;;;15.70;9.65;;;0.80;99.90;;;;;;5015274;28;20503;-67
2023/03/12 08:18:22;;;;;;;20.02;10.48;;;0.80;99.90;;;;;;5016417;28;20052;-66
2023/03/12 08:20:52;;;;;;;13.13;9.82;;;0.80;99.90;;;;;;5038880;28;20040;-69
2023/03/12 08:23:18;;;;;;;;;;;0.90;99.90;;;;;;5038733;28;20048;-67
2023/03/12 08:25:46;;;;;;;14.25;9.40;;;0.90;99.90;;;;;;5043296;28;19920;-66
2023/03/12 08:28:12;;;;;;;14.07;9.77;;;1.00;99.90;;;;;;5027035;28;20048;-70
2023/03/12 08:30:37;;;;;;;14.32;9.30;;;1.00;99.90;;;;;;5027998;28;20166;-68
2023/03/12 08:33:03;;;;;;;15.45;9.63;;;1.00;99.90;;;;;;5023643;28;20142;-67
2023/03/12 08:35:29;;;;;;;15.80;10.63;;;1.00;99.90;;;;;;5017990;28;20033;-68
2023/03/12 08:37:55;;;;;;;15.95;10.70;;;1.00;99.90;;;;;;5020568;28;20061;-68
2023/03/12 08:40:23;;;;;;;17.25;11.20;;;0.90;99.90;;;;;;5035259;28;20042;-67
2023/03/12 08:42:48;;;;;;;17.50;10.88;;;0.90;99.90;;;;;;5018857;28;20044;-67
2023/03/12 08:45:14;;;;;;;17.27;10.80;;;0.90;99.90;;;;;;5022637;28;20033;-67
2023/03/12 08:47:42;;;;;;;18.60;11.60;;;0.90;99.90;;;;;;5046913;28;20090;-68
2023/03/12 08:50:10;;;;;;;18.33;10.65;;;0.80;99.90;;;;;;5028820;28;20476;-66
2023/03/12 08:52:35;;;;;;;14.55;10.15;;;0.80;99.90;;;;;;5050895;28;20041;-67
2023/03/12 08:55:01;;;;;;;14.68;9.90;;;0.70;99.90;;;;;;5020068;28;20048;-66
2023/03/12 08:57:27;;;;;;;15.93;10.80;;;0.80;99.90;;;;;;5015343;28;20037;-66
2023/03/12 08:59:53;;;;;;;18.05;10.48;;;0.80;99.90;;;;;;5034647;28;20569;-66
2023/03/12 09:02:18;;;;;;;17.98;11.68;;;0.80;99.90;;;;;;5046938;28;20080;-66
2023/03/12 09:04:47;;;;;;;19.20;11.77;;;0.80;99.90;;;;;;5038959;28;20033;-67
2023/03/12 09:07:13;;;;;;;20.48;11.32;;;0.90;99.90;;;;;;5048729;28;20040;-66
2023/03/12 09:09:39;;;;;;;17.55;10.85;;;0.90;99.90;;;;;;5040705;28;20090;-68
2023/03/12 09:12:04;;;;;;;18.67;11.75;;;0.80;99.90;;;;;;5033604;28;20033;-67
2023/03/12 09:14:30;;;;;;;18.85;11.52;;;0.90;99.90;;;;;;5029402;28;20047;-67
2023/03/12 09:16:56;;;;;;;16.48;11.57;;;0.90;99.90;;;;;;5041626;28;20607;-66
2023/03/12 09:19:22;;;;;;;18.75;11.68;;;0.90;99.90;;;;;;5028196;28;20029;-68
2023/03/12 09:21:47;;;;;;;21.25;11.60;;;0.90;99.90;;;;;;5050611;28;20098;-68
2023/03/12 09:24:13;;;;;;;18.50;9.93;;;1.00;99.90;;;;;;5041348;28;20033;-67
2023/03/12 09:26:38;;;;;;;22.67;13.50;;;1.00;99.90;;;;;;5041355;28;20461;-65
2023/03/12 09:29:04;;;;;;;17.80;11.40;;;0.90;99.90;;;;;;5033227;28;20120;-69
2023/03/12 09:31:30;;;;;;;23.13;13.25;;;0.90;99.90;;;;;;5049476;28;20048;-67
2023/03/12 09:33:56;;;;;;;22.48;13.20;;;1.00;99.90;;;;;;5014003;28;20131;-66
2023/03/12 09:36:21;;;;;;;22.27;13.75;;;1.00;99.90;;;;;;5043224;28;20060;-68
2023/03/12 09:38:47;;;;;;;21.45;13.35;;;1.10;99.90;;;;;;5045002;28;20079;-68
2023/03/12 09:41:38;;;;;;;21.33;14.73;;;1.10;99.90;;;;;;5044169;28;20045;-68
2023/03/12 09:44:31;;;;;;;23.58;13.82;;;1.10;99.90;;;;;;5027042;28;20101;-67
2023/03/12 09:47:01;;;;;;;21.95;13.20;;;1.10;99.90;;;;;;5033547;28;20223;-66
2023/03/12 09:49:45;;;;;;;;;;;1.10;99.90;;;;;;5029945;28;20037;-67
2023/03/12 09:52:24;;;;;;;25.30;14.30;;;1.10;99.90;;;;;;5049730;28;20356;-67
2023/03/12 09:55:06;;;;;;;26.90;14.55;;;1.10;99.90;;;;;;5042462;28;20120;-70
2023/03/12 09:57:33;;;;;;;25.85;14.70;;;1.20;99.90;;;;;;5016853;28;20041;-69
2023/03/12 09:59:59;;;;;;;29.33;17.08;;;1.20;99.90;;;;;;5036194;28;20108;-67
2023/03/12 10:02:30;;;;;;;30.42;16.42;;;1.20;99.90;;;;;;5029602;28;20044;-67
2023/03/12 10:05:08;;;;;;;34.90;18.58;;;1.20;99.90;;;;;;5048469;28;20048;-66
2023/03/12 10:07:39;;;;;;;30.77;18.70;;;1.30;99.90;;;;;;5034158;28;20063;-70
2023/03/12 10:10:23;;;;;;;34.95;19.95;;;1.40;99.90;;;;;;5017690;28;20037;-70
2023/03/12 10:13:32;;;;;;;42.80;21.50;;;1.40;99.90;;;;;;5020568;28;20045;-68
2023/03/12 10:16:23;;;;;;;39.03;20.45;;;1.40;99.90;;;;;;5035913;28;20051;-70
2023/03/12 10:19:13;;;;;;;39.13;21.10;;;1.40;99.90;;;;;;5034218;28;20519;-70
2023/03/12 10:22:06;;;;;;;41.50;21.27;;;1.40;99.90;;;;;;5034635;28;20045;-70
2023/03/12 10:24:55;;;;;;;37.75;20.15;;;1.50;99.90;;;;;;5018476;28;20038;-67
2023/03/12 10:27:24;;;;;;;35.25;21.40;;;1.50;99.90;;;;;;5043396;28;20378;-68
2023/03/12 10:29:52;;;;;;;43.58;23.58;;;1.50;99.90;;;;;;5032529;28;20476;-69
2023/03/12 10:32:34;;;;;;;41.17;21.58;;;1.50;99.90;;;;;;5037988;28;20079;-69
2023/03/12 10:35:13;;;;;;;35.22;19.05;;;1.50;99.90;;;;;;5044064;28;20540;-68
2023/03/12 10:37:58;;;;;;;35.33;20.23;;;1.50;99.90;;;;;;5034425;28;20045;-69
2023/03/12 10:40:26;;;;;;;39.88;20.58;;;1.60;99.90;;;;;;5048598;28;20033;-68
2023/03/12 10:42:52;;;;;;;30.40;18.65;;;1.60;99.90;;;;;;5037642;28;20037;-69
2023/03/12 10:45:41;;;;;;;34.47;19.95;;;1.60;99.90;;;;;;5047282;28;20754;-69
2023/03/12 10:48:21;;;;;;;30.65;18.40;;;1.50;99.90;;;;;;5038098;28;20033;-68
2023/03/12 10:51:19;;;;;;;35.88;18.67;;;1.60;99.90;;;;;;5020242;28;20049;-68
2023/03/12 10:53:46;;;;;;;36.97;18.48;;;1.60;99.90;;;;;;5020836;28;20057;-68
2023/03/12 10:56:19;;;;;;;31.33;18.38;;;1.70;99.90;;;;;;5044637;28;20091;-68
2023/03/12 10:58:47;;;;;;;34.63;19.38;;;1.70;99.90;;;;;;5026498;28;20041;-68
2023/03/12 11:01:15;;;;;;;34.88;18.55;;;1.80;99.90;;;;;;5045937;28;20480;-66
2023/03/12 11:03:42;;;;;;;35.03;19.67;;;1.90;99.90;;;;;;5019892;28;20064;-69
2023/03/12 11:06:18;;;;;;;34.42;19.77;;;1.90;99.90;;;;;;5046258;28;20535;-69
2023/03/12 11:09:02;;;;;;;36.25;19.80;;;1.90;99.90;;;;;;5016594;28;20359;-67
2023/03/12 11:11:33;;;;;;;35.15;19.65;;;2.00;99.90;;;;;;5051349;28;20447;-66
2023/03/12 11:14:19;;;;;;;35.65;18.85;;;2.10;99.90;;;;;;5048593;28;20044;-64
2023/03/12 11:16:45;;;;;;;33.30;17.83;;;2.10;99.90;;;;;;5051338;28;20059;-66
2023/03/12 11:19:29;;;;;;;30.83;18.45;;;2.10;99.90;;;;;;5045317;28;20037;-65
2023/03/12 11:22:03;;;;;;;35.90;17.40;;;2.20;99.90;;;;;;5052070;28;20045;-66
2023/03/12 11:24:29;;;;;;;28.63;16.20;;;2.20;99.90;;;;;;5048153;28;20080;-67
2023/03/12 11:27:36;;;;;;;32.35;19.42;;;2.30;99.90;;;;;;5036857;28;20120;-67
2023/03/12 11:30:06;;;;;;;33.90;18.90;;;2.40;99.90;;;;;;5013464;28;20064;-67
2023/03/12 11:32:36;;;;;;;36.80;18.42;;;2.50;99.90;;;;;;5047527;28;20056;-68
2023/03/12 11:35:08;;;;;;;32.28;19.08;;;2.50;99.90;;;;;;5049982;28;20099;-66
2023/03/12 11:37:55;;;;;;;35.70;19.13;;;2.50;99.90;;;;;;5033776;28;20040;-66
2023/03/12 11:41:00;;;;;;;29.45;17.83;;;2.50;99.90;;;;;;5018283;28;20040;-66
2023/03/12 11:43:55;;;;;;;31.95;17.92;;;2.50;99.90;;;;;;5033861;28;20056;-66
2023/03/12 11:46:44;;;;;;;35.45;19.45;;;2.60;99.90;;;;;;5050441;28;20129;-66
2023/03/12 11:49:18;;;;;;;37.47;21.10;;;2.60;99.90;;;;;;5044415;28;20037;-67
2023/03/12 11:52:03;;;;;;;35.85;19.40;;;2.60;99.90;;;;;;5033970;28;20133;-67
2023/03/12 11:54:51;;;;;;;39.33;19.98;;;2.70;99.90;;;;;;5044226;28;20431;-67
2023/03/12 11:57:38;;;;;;;39.55;19.98;;;2.80;99.90;;;;;;5045476;28;20087;-65
2023/03/12 12:00:16;;;;;;;37.63;20.35;;;3.00;99.90;;;;;;5030568;28;20050;-65
2023/03/12 12:03:06;;;;;;;40.47;19.30;;;3.00;99.90;;;;;;5044673;28;20492;-66
2023/03/12 12:05:53;;;;;;;42.15;21.02;;;3.10;99.90;;;;;;5039123;28;20470;-66
2023/03/12 12:08:34;;;;;;;38.47;20.63;;;3.20;99.90;;;;;;5035359;28;20429;-67
2023/03/12 12:11:02;;;;;;;;;;;3.20;99.90;;;;;;5038824;28;20049;-66
2023/03/12 12:13:36;;;;;;;39.38;19.48;;;3.30;99.90;;;;;;5031132;28;19987;-66
2023/03/12 12:16:14;;;;;;;40.78;20.45;;;3.40;99.90;;;;;;5048495;28;20636;-65
2023/03/12 12:18:56;;;;;;;35.75;19.20;;;3.40;99.90;;;;;;5047693;28;20065;-68
2023/03/12 12:21:59;;;;;;;35.83;19.02;;;3.50;99.90;;;;;;5042099;28;20041;-68
2023/03/12 12:24:33;;;;;;;37.78;19.77;;;3.50;99.90;;;;;;5031323;28;20421;-68
2023/03/12 12:27:11;;;;;;;38.05;19.52;;;3.60;99.90;;;;;;5041248;28;20405;-66
2023/03/12 12:29:52;;;;;;;36.60;18.30;;;3.60;99.90;;;;;;5038090;28;20067;-67
2023/03/12 12:32:34;;;;;;;39.03;18.05;;;3.70;99.90;;;;;;5032255;28;20504;-67
2023/03/12 12:35:29;;;;;;;36.35;17.60;;;3.80;99.90;;;;;;5036554;28;20374;-67
2023/03/12 12:38:17;;;;;;;33.80;17.17;;;4.00;99.90;;;;;;5044198;28;20041;-66
2023/03/12 12:40:48;;;;;;;35.28;15.95;;;4.10;99.90;;;;;;5066204;28;20370;-65
2023/03/12 12:43:39;;;;;;;41.47;18.40;;;4.10;99.90;;;;;;5050010;28;20048;-65
2023/03/12 12:46:16;;;;;;;38.00;17.20;;;4.30;99.90;;;;;;5045953;28;20045;-67
2023/03/12 12:48:53;;;;;;;40.92;18.17;;;4.30;99.90;;;;;;5031803;28;20064;-67
2023/03/12 12:51:21;;;;;;;32.08;17.52;;;4.40;99.90;;;;;;5015739;28;20120;-66
2023/03/12 12:54:15;;;;;;;38.50;17.35;;;4.40;99.90;;;;;;5040882;28;20041;-65
2023/03/12 12:56:50;;;;;;;37.55;18.63;;;4.50;99.90;;;;;;5050039;28;20091;-66
2023/03/12 12:59:33;;;;;;;37.47;18.02;;;4.50;99.90;;;;;;5046561;28;20051;-65
2023/03/12 13:02:01;;;;;;;33.42;16.67;;;4.60;99.90;;;;;;5036942;28;20416;-67